Time;durP1;ratioP1;P1;durP2;ratioP2;P2;SDS_P1;SDS_P2;PMS_P1;PMS_P2;Temp;Humidity;BMP_temperature;BMP_pressure;BME280_temperature;BME280_humidity;BME280_pressure;Samples;Min_cycle;Max_cycle;Signal;HPM_P1;HPM_P2
2024/03/18 00:00:20;;;;;;;17.42;8.18;;;8.80;99.90;;;;;;4973048;29;20141;-84
2024/03/18 00:02:48;;;;;;;14.88;8.07;;;8.00;99.90;;;;;;4967438;29;20047;-84
2024/03/18 00:05:17;;;;;;;15.75;8.15;;;8.00;99.90;;;;;;4953520;29;20496;-84
2024/03/18 00:07:44;;;;;;;18.98;8.40;;;8.00;99.90;;;;;;4957394;29;20047;-84
2024/03/18 00:10:12;;;;;;;19.25;8.02;;;8.30;99.90;;;;;;4957368;29;20043;-84
2024/03/18 00:12:40;;;;;;;14.27;8.55;;;8.40;99.90;;;;;;4955774;29;20058;-84
2024/03/18 00:15:08;;;;;;;18.60;8.15;;;7.90;99.90;;;;;;4957241;29;20027;-84
2024/03/18 00:17:35;;;;;;;19.30;8.43;;;7.90;99.90;;;;;;4955446;29;20182;-84
2024/03/18 00:20:12;;;;;;;17.85;8.75;;;7.90;99.90;;;;;;4973057;29;20039;-84
2024/03/18 00:22:43;;;;;;;15.05;7.68;;;7.80;99.90;;;;;;4954074;29;20051;-84
2024/03/18 00:25:11;;;;;;;16.58;8.30;;;7.80;99.90;;;;;;4973106;29;20043;-85
2024/03/18 00:27:38;;;;;;;16.60;8.20;;;7.80;99.90;;;;;;4972838;29;20031;-84
2024/03/18 00:30:07;;;;;;;14.35;8.07;;;7.80;99.90;;;;;;4969545;29;20064;-84
2024/03/18 00:32:33;;;;;;;15.60;8.65;;;7.80;99.90;;;;;;4954004;28;20051;-84
2024/03/18 00:35:01;;;;;;;12.48;7.95;;;7.80;99.90;;;;;;4960136;29;20102;-84
2024/03/18 00:37:28;;;;;;;16.50;8.02;;;7.90;99.90;;;;;;4965986;29;20039;-84
2024/03/18 00:39:54;;;;;;;15.40;8.63;;;7.90;99.90;;;;;;4950632;29;20043;-84
2024/03/18 00:42:21;;;;;;;18.70;9.50;;;7.70;99.90;;;;;;4956426;29;20413;-84
2024/03/18 00:44:48;;;;;;;16.05;8.80;;;7.70;99.90;;;;;;4970970;29;20122;-84
2024/03/18 00:47:15;;;;;;;17.23;8.73;;;7.70;99.90;;;;;;4968886;29;20159;-84
2024/03/18 00:49:41;;;;;;;20.05;8.90;;;8.20;99.90;;;;;;4959457;29;20071;-84
2024/03/18 00:52:08;;;;;;;16.20;8.77;;;8.10;99.90;;;;;;4957605;28;20125;-84
2024/03/18 00:54:36;;;;;;;20.83;9.23;;;7.70;99.90;;;;;;4974506;29;20035;-84
2024/03/18 00:57:03;;;;;;;15.88;8.90;;;7.70;99.90;;;;;;4963164;29;20032;-84
2024/03/18 00:59:30;;;;;;;17.13;9.40;;;7.70;99.90;;;;;;4953135;29;20113;-84
2024/03/18 01:01:57;;;;;;;19.75;9.38;;;7.60;99.90;;;;;;4971439;29;20131;-84
2024/03/18 01:04:23;;;;;;;20.20;9.48;;;7.60;99.90;;;;;;4971284;29;20592;-84
2024/03/18 01:06:50;;;;;;;20.52;8.75;;;7.80;99.90;;;;;;4972459;29;20054;-84
2024/03/18 01:09:17;;;;;;;19.25;9.05;;;8.10;99.90;;;;;;4954266;29;20441;-84
2024/03/18 01:11:44;;;;;;;19.70;9.45;;;7.60;99.90;;;;;;4944440;29;20039;-84
2024/03/18 01:14:11;;;;;;;17.13;9.20;;;7.90;99.90;;;;;;4972120;29;20043;-84
2024/03/18 01:16:41;;;;;;;16.40;9.20;;;7.70;99.90;;;;;;4965500;29;20043;-84
2024/03/18 01:19:07;;;;;;;16.75;8.50;;;7.60;99.90;;;;;;4972021;29;20043;-84
2024/03/18 01:21:34;;;;;;;13.65;8.88;;;7.60;99.90;;;;;;4972207;29;20576;-84
2024/03/18 01:24:01;;;;;;;14.52;8.50;;;8.10;99.90;;;;;;4970528;29;20043;-84
2024/03/18 01:26:27;;;;;;;17.20;9.00;;;7.60;99.90;;;;;;4956125;29;20039;-84
2024/03/18 01:28:54;;;;;;;16.08;8.45;;;8.60;99.90;;;;;;4955187;29;20050;-84
2024/03/18 01:31:21;;;;;;;18.88;9.60;;;8.40;99.90;;;;;;4972034;29;20046;-84
2024/03/18 01:33:48;;;;;;;20.98;9.45;;;7.70;99.90;;;;;;4969932;29;20043;-84
2024/03/18 01:36:15;;;;;;;14.93;9.20;;;7.90;99.90;;;;;;4956107;29;20035;-84
2024/03/18 01:38:43;;;;;;;15.57;8.85;;;7.70;99.90;;;;;;4968041;29;20082;-84
2024/03/18 01:41:09;;;;;;;15.00;8.70;;;8.00;99.90;;;;;;4953588;29;20070;-84
2024/03/18 01:43:37;;;;;;;19.88;9.30;;;7.70;99.90;;;;;;4955567;29;20121;-84
2024/03/18 01:46:18;;;;;;;19.58;9.20;;;8.10;99.90;;;;;;4955964;29;20043;-84
2024/03/18 01:48:45;;;;;;;17.05;9.23;;;8.10;99.90;;;;;;4956273;29;20169;-84
2024/03/18 01:51:13;;;;;;;16.58;8.88;;;7.70;99.90;;;;;;4951033;28;20083;-84
2024/03/18 01:53:41;;;;;;;16.85;9.27;;;8.10;99.90;;;;;;4954615;29;20074;-84
2024/03/18 01:56:11;;;;;;;17.30;10.02;;;8.00;99.90;;;;;;4961521;29;20118;-84
2024/03/18 01:58:38;;;;;;;16.33;8.90;;;7.70;99.90;;;;;;4955963;29;20043;-84
2024/03/18 02:01:07;;;;;;;18.48;9.63;;;7.70;99.90;;;;;;4959850;29;20507;-84
2024/03/18 02:03:35;;;;;;;14.93;8.90;;;8.30;99.90;;;;;;4969662;29;20040;-84
2024/03/18 02:06:02;;;;;;;16.23;8.88;;;8.10;99.90;;;;;;4971540;29;20075;-84
2024/03/18 02:08:29;;;;;;;19.13;9.65;;;7.70;99.90;;;;;;4974767;28;20106;-84
2024/03/18 02:10:56;;;;;;;15.02;8.35;;;8.10;99.90;;;;;;4961243;29;20133;-84
2024/03/18 02:13:22;;;;;;;16.90;9.00;;;8.10;99.90;;;;;;4974071;28;20043;-85
2024/03/18 02:15:49;;;;;;;15.27;8.88;;;7.70;99.90;;;;;;4964735;29;20412;-85
2024/03/18 02:18:16;;;;;;;14.75;8.57;;;7.80;99.90;;;;;;4970771;29;20043;-84
2024/03/18 02:20:43;;;;;;;21.65;10.02;;;7.70;99.90;;;;;;4953558;29;20075;-84
2024/03/18 02:23:11;;;;;;;16.60;8.80;;;8.20;99.90;;;;;;4955708;29;20407;-84
2024/03/18 02:25:39;;;;;;;17.83;9.30;;;7.70;99.90;;;;;;4954105;29;20038;-84
2024/03/18 02:28:06;;;;;;;18.00;9.35;;;8.30;99.90;;;;;;4971554;29;20118;-84
2024/03/18 02:30:34;;;;;;;17.63;9.55;;;8.00;99.90;;;;;;4964725;28;20118;-84
2024/03/18 02:33:00;;;;;;;15.57;9.23;;;7.70;99.90;;;;;;4962992;28;20046;-84
2024/03/18 02:35:27;;;;;;;15.02;8.63;;;8.70;99.90;;;;;;4960894;29;20043;-84
2024/03/18 02:37:54;;;;;;;16.58;8.68;;;7.80;99.90;;;;;;4949469;29;20503;-84
2024/03/18 02:40:20;;;;;;;17.58;8.45;;;8.50;99.90;;;;;;4972387;29;20127;-85
2024/03/18 02:42:47;;;;;;;19.45;8.95;;;7.80;99.90;;;;;;4958726;29;20118;-85
2024/03/18 02:45:14;;;;;;;16.65;9.60;;;7.70;99.90;;;;;;4959740;29;20090;-85
2024/03/18 02:47:42;;;;;;;13.88;8.55;;;7.70;99.90;;;;;;4975292;29;20043;-84
2024/03/18 02:50:10;;;;;;;16.00;9.13;;;8.00;99.90;;;;;;4958967;29;20035;-84
2024/03/18 02:52:39;;;;;;;19.52;9.35;;;7.60;99.90;;;;;;4959405;29;20078;-84
2024/03/18 02:55:06;;;;;;;16.33;9.55;;;7.60;99.90;;;;;;4955872;29;20042;-84
2024/03/18 02:57:33;;;;;;;18.65;10.32;;;7.60;99.90;;;;;;4955777;29;20044;-84
2024/03/18 03:00:00;;;;;;;16.77;9.38;;;8.60;99.90;;;;;;4959022;29;20046;-85
2024/03/18 03:02:27;;;;;;;18.13;9.40;;;7.90;99.90;;;;;;4955298;29;20070;-84
2024/03/18 03:04:53;;;;;;;19.38;9.57;;;8.20;99.90;;;;;;4958533;29;20170;-84
2024/03/18 03:07:20;;;;;;;17.35;8.80;;;7.60;99.90;;;;;;4957207;29;20039;-84
2024/03/18 03:09:47;;;;;;;16.90;9.63;;;8.10;99.90;;;;;;4974048;29;20052;-84
2024/03/18 03:12:14;;;;;;;15.20;8.63;;;7.60;99.90;;;;;;4965134;29;20042;-85
2024/03/18 03:14:41;;;;;;;18.33;9.07;;;7.50;99.90;;;;;;4974672;29;20035;-84
2024/03/18 03:17:08;;;;;;;17.52;9.75;;;8.00;99.90;;;;;;4958640;29;20043;-84
2024/03/18 03:19:35;;;;;;;16.58;8.93;;;7.50;99.90;;;;;;4958605;29;20571;-84
2024/03/18 03:22:03;;;;;;;16.10;9.02;;;7.80;99.90;;;;;;4954922;29;20040;-85
2024/03/18 03:24:30;;;;;;;17.35;9.43;;;7.50;99.90;;;;;;4958117;29;20460;-84
2024/03/18 03:26:56;;;;;;;18.40;9.40;;;7.90;99.90;;;;;;4958188;29;20527;-84
2024/03/18 03:29:23;;;;;;;19.10;10.00;;;7.60;99.90;;;;;;4960379;28;20043;-84
2024/03/18 03:31:50;;;;;;;14.85;9.27;;;7.60;99.90;;;;;;4963891;29;20046;-85
2024/03/18 03:34:16;;;;;;;18.77;9.13;;;7.50;99.90;;;;;;4952585;29;20039;-85
2024/03/18 03:36:44;;;;;;;18.90;9.45;;;7.50;99.90;;;;;;4955499;29;20529;-84
2024/03/18 03:39:11;;;;;;;20.33;9.57;;;7.60;99.90;;;;;;4978476;29;20114;-84
2024/03/18 03:41:38;;;;;;;17.15;9.50;;;8.00;99.90;;;;;;4961518;29;20095;-84
2024/03/18 03:44:04;;;;;;;17.25;9.10;;;7.70;99.90;;;;;;4954567;29;20035;-84
2024/03/18 03:46:31;;;;;;;16.55;9.10;;;7.60;99.90;;;;;;4956753;29;20155;-84
2024/03/18 03:48:58;;;;;;;21.13;9.38;;;8.20;99.90;;;;;;4973734;29;20162;-84
2024/03/18 03:51:25;;;;;;;17.45;9.40;;;7.60;99.90;;;;;;4972791;29;20126;-84
2024/03/18 03:53:52;;;;;;;20.63;9.43;;;7.60;99.90;;;;;;4959852;29;20031;-85
2024/03/18 03:56:18;;;;;;;16.38;9.00;;;7.60;99.90;;;;;;4961361;29;20045;-84
2024/03/18 03:58:50;;;;;;;19.05;8.85;;;7.60;99.90;;;;;;4964411;29;20076;-84
2024/03/18 04:01:21;;;;;;;19.27;9.35;;;7.60;99.90;;;;;;4955658;29;20106;-84
2024/03/18 04:03:48;;;;;;;18.15;9.07;;;8.10;99.90;;;;;;4957618;28;20043;-84
2024/03/18 04:06:15;;;;;;;16.45;8.35;;;7.70;99.90;;;;;;4973824;29;20047;-84
2024/03/18 04:08:42;;;;;;;16.27;9.07;;;7.60;99.90;;;;;;4973446;29;20056;-84
2024/03/18 04:11:09;;;;;;;18.95;9.88;;;8.10;99.90;;;;;;4955890;29;20047;-84
2024/03/18 04:13:35;;;;;;;17.80;8.70;;;8.00;99.90;;;;;;4954458;29;20466;-84
2024/03/18 04:16:02;;;;;;;19.67;8.60;;;7.60;99.90;;;;;;4955092;29;20074;-84
2024/03/18 04:18:29;;;;;;;18.92;9.50;;;7.60;99.90;;;;;;4963101;29;20039;-84
2024/03/18 04:20:59;;;;;;;19.02;9.75;;;7.60;99.90;;;;;;4952123;29;20047;-85
2024/03/18 04:23:29;;;;;;;17.73;9.75;;;7.60;99.90;;;;;;4953838;29;20066;-84
2024/03/18 04:26:03;;;;;;;21.10;9.43;;;7.60;99.90;;;;;;4957616;29;20070;-84
2024/03/18 04:28:29;;;;;;;18.67;9.60;;;7.80;99.90;;;;;;4973506;29;20042;-84
2024/03/18 04:30:58;;;;;;;16.60;9.38;;;7.90;99.90;;;;;;4960279;29;20043;-85
2024/03/18 04:33:25;;;;;;;22.77;9.73;;;7.70;99.90;;;;;;4972558;29;20456;-84
2024/03/18 04:35:52;;;;;;;18.73;9.25;;;8.00;99.90;;;;;;4973767;29;20043;-84
2024/03/18 04:38:19;;;;;;;19.92;9.98;;;7.80;99.90;;;;;;4955108;29;20071;-85
2024/03/18 04:40:46;;;;;;;18.67;9.60;;;7.90;99.90;;;;;;4972942;29;20102;-84
2024/03/18 04:43:12;;;;;;;16.75;9.95;;;7.50;99.90;;;;;;4954915;29;20050;-84
2024/03/18 04:45:39;;;;;;;16.92;10.07;;;7.30;99.90;;;;;;4953497;29;20036;-84
2024/03/18 04:48:07;;;;;;;18.70;9.80;;;7.30;99.90;;;;;;4966331;29;20035;-84
2024/03/18 04:50:33;;;;;;;20.30;10.60;;;7.20;99.90;;;;;;4972536;29;20035;-85
2024/03/18 04:53:00;;;;;;;22.23;11.27;;;7.20;99.90;;;;;;4970187;29;20063;-84
2024/03/18 04:55:27;;;;;;;22.58;10.55;;;7.50;99.90;;;;;;4963466;29;20039;-84
2024/03/18 04:57:55;;;;;;;18.65;10.60;;;7.50;99.90;;;;;;4954060;29;20052;-85
2024/03/18 05:00:26;;;;;;;17.83;10.43;;;8.00;99.90;;;;;;4961110;29;20121;-85
2024/03/18 05:02:53;;;;;;;23.20;11.30;;;7.60;99.90;;;;;;4956339;29;20058;-84
2024/03/18 05:05:20;;;;;;;23.40;11.40;;;7.00;99.90;;;;;;4956699;29;20040;-84
2024/03/18 05:07:49;;;;;;;22.73;11.02;;;8.00;99.90;;;;;;4971401;29;20043;-84
2024/03/18 05:10:21;;;;;;;22.23;11.90;;;7.70;99.90;;;;;;4953248;29;20113;-84
2024/03/18 05:12:48;;;;;;;21.95;11.32;;;7.20;99.90;;;;;;4970046;29;20098;-84
2024/03/18 05:15:20;;;;;;;20.80;10.82;;;7.00;99.90;;;;;;4961515;29;20130;-84
2024/03/18 05:17:47;;;;;;;21.58;11.60;;;6.90;99.90;;;;;;4955415;29;20401;-84
2024/03/18 05:20:16;;;;;;;21.17;11.88;;;7.60;99.90;;;;;;4956410;29;20046;-84
2024/03/18 05:22:43;;;;;;;22.15;10.63;;;6.90;99.90;;;;;;4952830;29;20043;-85
2024/03/18 05:25:09;;;;;;;24.13;11.05;;;8.00;99.90;;;;;;4967128;29;20051;-85
2024/03/18 05:27:37;;;;;;;25.00;10.90;;;7.00;99.90;;;;;;4953714;29;20039;-84
2024/03/18 05:30:05;;;;;;;23.25;11.40;;;6.90;99.90;;;;;;4969241;29;20063;-84
2024/03/18 05:32:32;;;;;;;21.55;12.13;;;6.90;99.90;;;;;;4953358;29;20051;-84
2024/03/18 05:34:59;;;;;;;22.83;11.93;;;7.60;99.90;;;;;;4953571;29;20079;-85
2024/03/18 05:37:25;;;;;;;24.38;11.85;;;6.80;99.90;;;;;;4948013;29;20493;-84
2024/03/18 05:39:53;;;;;;;21.73;11.13;;;6.80;99.90;;;;;;4969643;29;20106;-84
2024/03/18 05:42:20;;;;;;;25.60;11.63;;;7.90;99.90;;;;;;4964077;28;20041;-84
2024/03/18 05:44:46;;;;;;;25.00;11.40;;;7.10;99.90;;;;;;4957389;29;20129;-85
2024/03/18 05:47:13;;;;;;;27.40;11.82;;;7.00;99.90;;;;;;4955929;29;20058;-84
2024/03/18 05:49:41;;;;;;;21.05;10.80;;;7.70;99.90;;;;;;4952410;29;20039;-85
2024/03/18 05:52:08;;;;;;;23.73;10.35;;;7.20;99.90;;;;;;4955565;29;20485;-85
2024/03/18 05:54:35;;;;;;;21.15;10.95;;;6.80;99.90;;;;;;4955711;29;20101;-84
2024/03/18 05:57:01;;;;;;;20.83;11.23;;;6.80;99.90;;;;;;4955231;29;20046;-85
2024/03/18 05:59:28;;;;;;;27.98;11.18;;;7.40;99.90;;;;;;4951111;29;20043;-84
2024/03/18 06:01:55;;;;;;;23.30;12.68;;;6.90;99.90;;;;;;4959755;28;20046;-83
2024/03/18 06:04:22;;;;;;;25.52;11.35;;;7.50;99.90;;;;;;4956021;29;20036;-84
2024/03/18 06:06:48;;;;;;;26.92;11.93;;;7.00;99.90;;;;;;4955505;29;20042;-84
2024/03/18 06:09:15;;;;;;;22.70;11.68;;;6.90;99.90;;;;;;4954802;29;20062;-84
2024/03/18 06:11:42;;;;;;;23.13;11.38;;;7.40;99.90;;;;;;4948272;29;20051;-85
2024/03/18 06:14:11;;;;;;;25.65;11.85;;;6.80;99.90;;;;;;4950008;29;20126;-84
2024/03/18 06:16:38;;;;;;;22.67;11.15;;;6.90;99.90;;;;;;4955886;29;20075;-84
2024/03/18 06:19:05;;;;;;;24.63;11.60;;;6.90;99.90;;;;;;4955374;29;20814;-84
2024/03/18 06:21:42;;;;;;;21.30;11.20;;;6.80;99.90;;;;;;4947523;29;20039;-84
2024/03/18 06:24:18;;;;;;;25.20;12.43;;;6.90;99.90;;;;;;4952671;29;20075;-84
2024/03/18 06:26:44;;;;;;;24.73;11.55;;;6.80;99.90;;;;;;4955989;29;20098;-84
2024/03/18 06:29:12;;;;;;;24.02;11.80;;;6.80;99.90;;;;;;4955256;29;20787;-85
2024/03/18 06:31:38;;;;;;;20.77;11.40;;;6.80;99.90;;;;;;4957864;29;20040;-84
2024/03/18 06:34:05;;;;;;;22.77;11.48;;;6.90;99.90;;;;;;4950422;29;20094;-84
2024/03/18 06:36:32;;;;;;;27.17;11.45;;;7.20;99.90;;;;;;4954075;29;20047;-84
2024/03/18 06:38:59;;;;;;;23.83;11.25;;;7.80;99.90;;;;;;4954874;29;20046;-84
2024/03/18 06:41:25;;;;;;;21.45;11.88;;;6.90;99.90;;;;;;4953664;29;20416;-84
2024/03/18 06:43:52;;;;;;;24.83;11.68;;;7.00;99.90;;;;;;4953439;29;20077;-84
2024/03/18 06:46:19;;;;;;;23.15;11.60;;;6.90;99.90;;;;;;4955216;29;20039;-84
2024/03/18 06:48:45;;;;;;;20.95;11.48;;;6.90;99.90;;;;;;4955329;29;20032;-84
2024/03/18 06:51:14;;;;;;;23.52;11.52;;;7.40;99.90;;;;;;4953790;29;20035;-84
2024/03/18 06:53:41;;;;;;;26.48;11.07;;;7.00;99.90;;;;;;4948944;29;20035;-84
2024/03/18 06:56:08;;;;;;;31.10;11.82;;;7.20;99.90;;;;;;4967338;29;20420;-84
2024/03/18 06:58:37;;;;;;;19.73;10.73;;;7.00;99.90;;;;;;4968390;29;20062;-84
2024/03/18 07:01:04;;;;;;;21.08;11.93;;;7.10;99.90;;;;;;4953658;29;20039;-84
2024/03/18 07:03:30;;;;;;;23.67;12.18;;;7.30;99.90;;;;;;4953853;29;21704;-84
2024/03/18 07:05:57;;;;;;;27.38;12.23;;;7.00;99.90;;;;;;4952643;29;20035;-85
2024/03/18 07:08:24;;;;;;;22.95;11.02;;;7.10;99.90;;;;;;4952159;29;20114;-84
2024/03/18 07:10:50;;;;;;;30.67;12.43;;;7.10;99.90;;;;;;4968056;29;20062;-83
2024/03/18 07:13:17;;;;;;;24.95;11.48;;;7.70;99.90;;;;;;4953535;29;20054;-84
2024/03/18 07:15:43;;;;;;;26.38;10.90;;;7.10;99.90;;;;;;4963804;29;20516;-84
2024/03/18 07:18:10;;;;;;;23.25;12.38;;;7.10;99.90;;;;;;4954604;29;20047;-84
2024/03/18 07:20:37;;;;;;;24.55;11.93;;;7.20;99.90;;;;;;4952702;29;20471;-84
2024/03/18 07:23:03;;;;;;;24.60;12.15;;;7.20;99.90;;;;;;4970585;29;20047;-84
2024/03/18 07:25:31;;;;;;;21.65;11.52;;;7.20;99.90;;;;;;4957956;29;20039;-89
2024/03/18 07:28:01;;;;;;;21.00;11.73;;;7.20;99.90;;;;;;4959848;29;20489;-88
2024/03/18 07:30:28;;;;;;;25.92;11.82;;;7.20;99.90;;;;;;4959699;29;20131;-89
2024/03/18 07:32:54;;;;;;;25.52;12.30;;;7.20;99.90;;;;;;4956271;29;20071;-89
2024/03/18 07:35:21;;;;;;;21.70;12.05;;;7.20;99.90;;;;;;4959885;29;20102;-89
2024/03/18 07:37:47;;;;;;;26.30;12.95;;;8.40;99.90;;;;;;4975527;29;20051;-92
2024/03/18 07:40:15;;;;;;;32.30;13.13;;;8.50;99.90;;;;;;4949862;29;20048;-90
2024/03/18 07:42:41;;;;;;;24.00;12.02;;;7.20;99.90;;;;;;4957258;29;20696;-90
2024/03/18 07:45:08;;;;;;;30.60;13.35;;;7.30;99.90;;;;;;4949055;29;20039;-90
2024/03/18 07:47:35;;;;;;;28.00;12.57;;;7.30;99.90;;;;;;4959802;29;20039;-90
2024/03/18 07:50:06;;;;;;;29.00;12.82;;;7.30;99.90;;;;;;4951335;29;20035;-90
2024/03/18 07:52:33;;;;;;;26.30;12.52;;;7.30;99.90;;;;;;4957651;29;20121;-91
2024/03/18 07:55:00;;;;;;;25.67;12.50;;;7.40;99.90;;;;;;4962602;29;20079;-90
2024/03/18 07:57:28;;;;;;;25.38;12.70;;;7.60;99.90;;;;;;4955399;29;20054;-90
2024/03/18 07:59:55;;;;;;;25.90;12.85;;;7.40;99.90;;;;;;4950973;29;20050;-90
2024/03/18 08:02:22;;;;;;;24.40;12.40;;;7.40;99.90;;;;;;4971675;29;20052;-90
2024/03/18 08:04:50;;;;;;;28.77;13.50;;;8.00;99.90;;;;;;4956685;29;20492;-90
2024/03/18 08:07:18;;;;;;;24.02;12.27;;;7.40;99.90;;;;;;4949789;29;20054;-90
2024/03/18 08:10:03;;;;;;;27.20;12.95;;;7.70;99.90;;;;;;4959294;29;20059;-89
2024/03/18 08:12:30;;;;;;;27.08;13.20;;;7.80;99.90;;;;;;4953378;29;20043;-89
2024/03/18 08:14:57;;;;;;;28.17;12.18;;;7.50;99.90;;;;;;4959518;29;20394;-89
2024/03/18 08:17:26;;;;;;;25.15;12.68;;;8.50;99.90;;;;;;4959251;29;20134;-90
2024/03/18 08:19:53;;;;;;;28.33;13.20;;;8.20;99.90;;;;;;4956151;29;20051;-89
2024/03/18 08:22:20;;;;;;;23.02;12.77;;;7.60;99.90;;;;;;4958993;29;20043;-89
2024/03/18 08:24:47;;;;;;;25.55;12.15;;;7.60;99.90;;;;;;4953827;29;20043;-89
2024/03/18 08:27:14;;;;;;;24.48;12.38;;;7.60;99.90;;;;;;4959005;29;20090;-89
2024/03/18 08:29:41;;;;;;;26.48;12.75;;;8.50;99.90;;;;;;4959320;29;20043;-89
2024/03/18 08:32:07;;;;;;;25.85;12.45;;;7.60;99.90;;;;;;4957574;29;20138;-89
2024/03/18 08:34:34;;;;;;;26.88;12.40;;;7.00;99.90;;;;;;4958431;29;20055;-89
2024/03/18 08:37:01;;;;;;;23.90;13.02;;;8.50;99.90;;;;;;4959016;29;20047;-89
2024/03/18 08:39:28;;;;;;;31.38;12.48;;;7.70;99.90;;;;;;4956899;29;20048;-89
2024/03/18 08:41:55;;;;;;;23.13;12.25;;;7.60;99.90;;;;;;4974291;29;20043;-89
2024/03/18 08:44:22;;;;;;;27.60;12.40;;;8.20;99.90;;;;;;4958792;29;20031;-89
2024/03/18 08:46:49;;;;;;;24.60;11.35;;;7.70;99.90;;;;;;4950736;29;20124;-89
2024/03/18 08:49:19;;;;;;;26.15;11.43;;;8.40;99.90;;;;;;4950268;29;20497;-89
2024/03/18 08:51:46;;;;;;;26.08;11.95;;;8.70;99.90;;;;;;4971424;29;20085;-90
2024/03/18 08:54:29;;;;;;;;;;;;;;;;;;;;;
2024/03/18 08:56:56;;;;;;;24.35;11.93;;;7.70;99.90;;;;;;4963648;29;20516;-89
2024/03/18 08:59:23;;;;;;;20.52;11.27;;;8.10;99.90;;;;;;4954746;29;20130;-90
2024/03/18 09:01:50;;;;;;;24.30;11.75;;;7.90;99.90;;;;;;4961399;29;20044;-89
2024/03/18 09:04:16;;;;;;;22.27;11.07;;;7.60;99.90;;;;;;4958172;29;20043;-89
2024/03/18 09:06:43;;;;;;;21.00;12.05;;;7.90;99.90;;;;;;4958224;29;20098;-89
2024/03/18 09:09:11;;;;;;;23.38;11.63;;;8.00;99.90;;;;;;4974090;29;20067;-89
2024/03/18 09:11:38;;;;;;;21.75;11.40;;;8.10;99.90;;;;;;4960289;28;20405;-89
2024/03/18 09:14:05;;;;;;;26.17;11.23;;;8.40;99.90;;;;;;4959619;29;20046;-90
2024/03/18 09:16:32;;;;;;;25.00;11.98;;;8.20;99.90;;;;;;4956977;29;20075;-90
2024/03/18 09:18:59;;;;;;;20.27;11.98;;;9.10;99.90;;;;;;4956074;29;20043;-89
2024/03/18 09:21:26;;;;;;;22.45;11.65;;;9.00;99.90;;;;;;4954543;29;20048;-90
2024/03/18 09:23:54;;;;;;;22.63;11.38;;;9.20;99.90;;;;;;4958252;29;20082;-90
2024/03/18 09:26:23;;;;;;;23.50;12.00;;;8.30;99.90;;;;;;4961165;28;20038;-90
2024/03/18 09:28:50;;;;;;;24.83;11.63;;;8.70;99.90;;;;;;4957624;29;20058;-90
2024/03/18 09:31:17;;;;;;;25.30;12.23;;;8.40;99.90;;;;;;4957452;29;20079;-90
2024/03/18 09:33:43;;;;;;;21.88;11.38;;;8.40;99.90;;;;;;4956654;29;20354;-89
2024/03/18 09:36:10;;;;;;;24.40;12.35;;;8.40;99.90;;;;;;4957395;29;20122;-90
2024/03/18 09:38:37;;;;;;;21.73;12.05;;;8.40;99.90;;;;;;4947569;29;20127;-90
2024/03/18 09:41:06;;;;;;;22.60;12.18;;;8.50;99.90;;;;;;4972586;29;20047;-90
2024/03/18 09:43:34;;;;;;;22.58;12.05;;;8.50;99.90;;;;;;4957877;29;20122;-90
2024/03/18 09:46:04;;;;;;;21.80;11.68;;;8.40;99.90;;;;;;4955567;29;20050;-90
2024/03/18 09:48:35;;;;;;;24.20;12.18;;;8.40;99.90;;;;;;4973315;29;20435;-90
2024/03/18 09:51:03;;;;;;;20.77;11.88;;;9.30;99.90;;;;;;4951980;29;20054;-90
2024/03/18 09:53:30;;;;;;;25.52;12.15;;;8.60;99.90;;;;;;4957462;29;20473;-90
2024/03/18 09:55:57;;;;;;;23.95;12.82;;;9.40;99.90;;;;;;4956715;29;20085;-90
2024/03/18 09:58:23;;;;;;;24.58;11.93;;;8.70;99.90;;;;;;4958091;29;20126;-90
2024/03/18 10:00:50;;;;;;;21.02;11.55;;;8.80;99.90;;;;;;4956025;29;20127;-90
2024/03/18 10:03:18;;;;;;;21.55;11.32;;;8.80;99.90;;;;;;4971287;29;20043;-90
2024/03/18 10:05:47;;;;;;;19.83;11.52;;;8.80;99.90;;;;;;4956489;29;20036;-90
2024/03/18 10:08:15;;;;;;;20.60;11.25;;;8.90;99.90;;;;;;4953709;29;20560;-89
2024/03/18 10:10:45;;;;;;;24.00;13.00;;;9.00;99.90;;;;;;4948135;29;20036;-90
2024/03/18 10:13:12;;;;;;;22.38;11.98;;;9.90;99.90;;;;;;4954434;29;20047;-90
2024/03/18 10:15:39;;;;;;;21.65;12.23;;;8.90;99.90;;;;;;4972343;29;20046;-91
2024/03/18 10:18:13;;;;;;;22.42;12.00;;;8.90;99.90;;;;;;4940861;29;20500;-90
2024/03/18 10:20:40;;;;;;;21.40;11.95;;;8.90;99.90;;;;;;4973047;29;20046;-90
2024/03/18 10:23:14;;;;;;;25.17;12.20;;;9.70;99.90;;;;;;4966789;29;20047;-90
2024/03/18 10:25:41;;;;;;;25.35;13.27;;;9.70;99.90;;;;;;4956360;29;20217;-90
2024/03/18 10:28:09;;;;;;;24.90;12.30;;;9.20;99.90;;;;;;4956435;29;20148;-91
2024/03/18 10:30:39;;;;;;;20.73;11.30;;;9.30;99.90;;;;;;4957030;29;20058;-90
2024/03/18 10:33:08;;;;;;;21.90;11.60;;;9.00;99.90;;;;;;4954712;29;20102;-90
2024/03/18 10:35:35;;;;;;;21.05;11.80;;;9.10;99.90;;;;;;4956605;29;20050;-90
2024/03/18 10:38:06;;;;;;;20.35;11.77;;;9.20;99.90;;;;;;4956703;29;20050;-90
2024/03/18 10:40:35;;;;;;;23.45;11.63;;;9.20;99.90;;;;;;4957316;29;20126;-90
2024/03/18 10:43:04;;;;;;;25.77;12.23;;;9.30;99.90;;;;;;4956828;29;20673;-91
2024/03/18 10:45:32;;;;;;;21.75;11.98;;;9.30;99.90;;;;;;4957284;29;20044;-91
2024/03/18 10:48:02;;;;;;;23.63;12.88;;;9.40;99.90;;;;;;4950013;29;20036;-91
2024/03/18 10:50:30;;;;;;;23.85;13.32;;;10.00;99.90;;;;;;4971672;29;20031;-90
2024/03/18 10:52:57;;;;;;;21.67;12.07;;;9.60;99.90;;;;;;4969122;29;20047;-90
2024/03/18 10:55:26;;;;;;;21.55;12.38;;;9.70;99.90;;;;;;4940607;29;20051;-90
2024/03/18 10:57:55;;;;;;;23.90;11.98;;;9.70;99.90;;;;;;4960812;29;20043;-90
2024/03/18 11:00:23;;;;;;;23.25;12.85;;;9.70;99.90;;;;;;4960184;29;20070;-90
2024/03/18 11:02:58;;;;;;;21.25;13.02;;;9.80;99.90;;;;;;4979436;28;20082;-90
2024/03/18 11:05:31;;;;;;;22.80;12.77;;;9.80;99.90;;;;;;4961579;29;20062;-90
2024/03/18 11:08:02;;;;;;;25.27;12.63;;;9.80;99.90;;;;;;4954251;29;20143;-89
2024/03/18 11:10:30;;;;;;;22.25;12.38;;;9.90;99.90;;;;;;4960111;29;20073;-89
2024/03/18 11:13:33;;;;;;;22.27;12.38;;;9.90;99.90;;;;;;4957250;29;20047;-90
2024/03/18 11:16:09;;;;;;;25.00;12.95;;;9.90;99.90;;;;;;4948989;29;20059;-90
2024/03/18 11:18:47;;;;;;;25.45;12.95;;;10.00;99.90;;;;;;4960435;29;20551;-90
2024/03/18 11:21:19;;;;;;;24.02;12.38;;;10.00;99.90;;;;;;4959920;29;20043;-90
2024/03/18 11:24:03;;;;;;;27.10;13.00;;;10.00;99.90;;;;;;4957579;29;20035;-90
2024/03/18 11:26:30;;;;;;;27.40;13.10;;;10.10;99.90;;;;;;4956730;29;20046;-90
2024/03/18 11:29:07;;;;;;;24.95;12.13;;;10.10;99.90;;;;;;4957356;29;20122;-90
2024/03/18 11:31:36;;;;;;;23.67;13.18;;;10.20;99.90;;;;;;4966809;29;20067;-90
2024/03/18 11:34:07;;;;;;;25.02;12.98;;;10.30;99.90;;;;;;4958564;29;20093;-89
2024/03/18 11:36:38;;;;;;;27.33;13.02;;;10.30;99.90;;;;;;4956210;29;20031;-90
2024/03/18 11:39:07;;;;;;;23.38;13.25;;;10.20;99.90;;;;;;4948234;29;20047;-90
2024/03/18 11:41:35;;;;;;;22.90;12.60;;;10.30;99.90;;;;;;4958009;29;20106;-90
2024/03/18 11:44:05;;;;;;;26.58;13.38;;;10.30;99.90;;;;;;4963879;28;20104;-90
2024/03/18 11:46:33;;;;;;;32.67;13.65;;;10.30;99.90;;;;;;4959956;29;20054;-90
2024/03/18 11:49:07;;;;;;;25.40;13.63;;;10.30;99.90;;;;;;4959000;29;20039;-91
2024/03/18 11:51:49;;;;;;;;;;;;;;;;;;;;;
2024/03/18 11:54:16;;;;;;;26.08;13.20;;;10.70;99.90;;;;;;4969462;29;20047;-90
2024/03/18 11:56:43;;;;;;;26.13;13.02;;;10.20;99.90;;;;;;4957128;29;20469;-92
2024/03/18 11:59:14;;;;;;;25.23;13.70;;;11.20;99.90;;;;;;4959144;29;20122;-91
2024/03/18 12:01:41;;;;;;;26.88;13.48;;;10.20;99.90;;;;;;4956778;29;20036;-91
2024/03/18 12:04:08;;;;;;;28.88;13.75;;;10.20;99.90;;;;;;4961997;29;20039;-91
2024/03/18 12:06:38;;;;;;;26.88;13.70;;;10.20;99.90;;;;;;4975132;29;20036;-90
2024/03/18 12:09:06;;;;;;;25.13;13.45;;;10.10;99.90;;;;;;4946480;29;20048;-90
2024/03/18 12:11:36;;;;;;;28.15;14.18;;;10.10;99.90;;;;;;4971851;29;20090;-90
2024/03/18 12:14:02;;;;;;;26.88;13.43;;;9.90;99.90;;;;;;4933484;29;20040;-90
2024/03/18 12:16:32;;;;;;;32.60;14.38;;;10.50;99.90;;;;;;4955726;29;20042;-90
2024/03/18 12:19:07;;;;;;;28.05;14.30;;;10.00;99.90;;;;;;4921200;29;20047;-90
2024/03/18 12:21:40;;;;;;;26.02;14.07;;;10.50;99.90;;;;;;4932515;29;20040;-91
2024/03/18 12:29:38;;;;;;;29.92;14.52;;;10.00;99.90;;;;;;4941785;29;20127;-90
2024/03/18 12:32:05;;;;;;;26.67;14.68;;;10.10;99.90;;;;;;4936569;29;20126;-91
2024/03/18 12:34:34;;;;;;;30.02;15.25;;;10.10;99.90;;;;;;4936377;29;20122;-91
2024/03/18 12:37:02;;;;;;;26.52;14.30;;;10.10;99.90;;;;;;4939741;29;20047;-90
2024/03/18 12:39:29;;;;;;;25.75;14.95;;;10.20;99.90;;;;;;4924245;29;20493;-91
2024/03/18 12:42:02;;;;;;;26.83;14.45;;;10.30;99.90;;;;;;4938810;29;20040;-90
2024/03/18 12:44:29;;;;;;;26.35;13.85;;;10.30;99.90;;;;;;4933140;29;20071;-90
2024/03/18 12:46:55;;;;;;;29.25;14.55;;;10.30;99.90;;;;;;4941762;29;20067;-90
2024/03/18 12:49:22;;;;;;;30.88;14.93;;;10.40;99.90;;;;;;4954105;29;20047;-88